sensor_id;sensor_type;location;lat;lon;timestamp;P1;durP1;ratioP1;P2;durP2;ratioP2
20080;SDS011;10200;49.232;9.222;2022-08-25T00:03:47;4.80;;;2.47;;
20080;SDS011;10200;49.232;9.222;2022-08-25T00:06:13;3.10;;;2.53;;
20080;SDS011;10200;49.232;9.222;2022-08-25T00:08:40;4.22;;;2.85;;
20080;SDS011;10200;49.232;9.222;2022-08-25T00:11:11;3.05;;;2.75;;
20080;SDS011;10200;49.232;9.222;2022-08-25T00:13:49;3.55;;;2.60;;
20080;SDS011;10200;49.232;9.222;2022-08-25T00:16:25;5.13;;;2.38;;
20080;SDS011;10200;49.232;9.222;2022-08-25T00:18:54;3.35;;;2.92;;
20080;SDS011;10200;49.232;9.222;2022-08-25T00:21:22;4.07;;;3.30;;
20080;SDS011;10200;49.232;9.222;2022-08-25T00:23:48;4.47;;;2.92;;
20080;SDS011;10200;49.232;9.222;2022-08-25T00:26:15;2.85;;;2.65;;
20080;SDS011;10200;49.232;9.222;2022-08-25T00:28:41;3.92;;;3.10;;
20080;SDS011;10200;49.232;9.222;2022-08-25T00:31:11;4.32;;;2.67;;
20080;SDS011;10200;49.232;9.222;2022-08-25T00:33:40;4.40;;;3.10;;
20080;SDS011;10200;49.232;9.222;2022-08-25T00:36:07;3.53;;;2.80;;
20080;SDS011;10200;49.232;9.222;2022-08-25T00:38:36;4.03;;;2.90;;
20080;SDS011;10200;49.232;9.222;2022-08-25T00:41:04;3.05;;;2.60;;
20080;SDS011;10200;49.232;9.222;2022-08-25T00:46:08;2.70;;;2.50;;
20080;SDS011;10200;49.232;9.222;2022-08-25T00:48:35;4.63;;;3.15;;
20080;SDS011;10200;49.232;9.222;2022-08-25T00:51:02;6.28;;;2.63;;
20080;SDS011;10200;49.232;9.222;2022-08-25T00:53:30;4.63;;;3.13;;
20080;SDS011;10200;49.232;9.222;2022-08-25T00:55:56;3.60;;;2.97;;
20080;SDS011;10200;49.232;9.222;2022-08-25T00:58:23;2.67;;;2.42;;
20080;SDS011;10200;49.232;9.222;2022-08-25T01:00:52;4.63;;;3.22;;
20080;SDS011;10200;49.232;9.222;2022-08-25T01:03:22;5.82;;;3.35;;
20080;SDS011;10200;49.232;9.222;2022-08-25T01:05:51;3.33;;;3.03;;
20080;SDS011;10200;49.232;9.222;2022-08-25T01:08:19;5.40;;;2.97;;
20080;SDS011;10200;49.232;9.222;2022-08-25T01:10:47;9.85;;;3.50;;
20080;SDS011;10200;49.232;9.222;2022-08-25T01:13:21;7.47;;;3.40;;
20080;SDS011;10200;49.232;9.222;2022-08-25T01:15:55;4.30;;;2.78;;
20080;SDS011;10200;49.232;9.222;2022-08-25T01:18:22;3.00;;;2.42;;
20080;SDS011;10200;49.232;9.222;2022-08-25T01:20:49;5.18;;;3.33;;
20080;SDS011;10200;49.232;9.222;2022-08-25T01:23:16;2.95;;;2.65;;
20080;SDS011;10200;49.232;9.222;2022-08-25T01:25:46;5.38;;;3.28;;
20080;SDS011;10200;49.232;9.222;2022-08-25T01:28:20;4.03;;;2.92;;
20080;SDS011;10200;49.232;9.222;2022-08-25T01:30:46;3.78;;;3.35;;
20080;SDS011;10200;49.232;9.222;2022-08-25T01:33:13;5.13;;;3.80;;
20080;SDS011;10200;49.232;9.222;2022-08-25T01:35:41;4.88;;;3.10;;
20080;SDS011;10200;49.232;9.222;2022-08-25T01:38:07;4.68;;;3.17;;
20080;SDS011;10200;49.232;9.222;2022-08-25T01:40:34;5.10;;;3.67;;
20080;SDS011;10200;49.232;9.222;2022-08-25T01:45:40;3.60;;;2.92;;
20080;SDS011;10200;49.232;9.222;2022-08-25T01:48:08;4.40;;;3.20;;
20080;SDS011;10200;49.232;9.222;2022-08-25T01:50:35;4.95;;;3.75;;
20080;SDS011;10200;49.232;9.222;2022-08-25T01:55:31;4.53;;;3.70;;
20080;SDS011;10200;49.232;9.222;2022-08-25T01:58:15;3.90;;;3.35;;
20080;SDS011;10200;49.232;9.222;2022-08-25T02:00:48;5.85;;;3.35;;
20080;SDS011;10200;49.232;9.222;2022-08-25T02:03:18;3.88;;;3.47;;
20080;SDS011;10200;49.232;9.222;2022-08-25T02:05:44;4.60;;;3.05;;
20080;SDS011;10200;49.232;9.222;2022-08-25T02:08:10;6.55;;;3.75;;
20080;SDS011;10200;49.232;9.222;2022-08-25T02:10:36;4.25;;;3.50;;
20080;SDS011;10200;49.232;9.222;2022-08-25T02:13:02;5.28;;;3.33;;
20080;SDS011;10200;49.232;9.222;2022-08-25T02:15:29;4.82;;;4.00;;
20080;SDS011;10200;49.232;9.222;2022-08-25T02:17:54;4.43;;;3.90;;
20080;SDS011;10200;49.232;9.222;2022-08-25T02:20:21;6.38;;;3.83;;
20080;SDS011;10200;49.232;9.222;2022-08-25T02:22:48;4.25;;;3.80;;
20080;SDS011;10200;49.232;9.222;2022-08-25T02:25:17;4.57;;;3.78;;
20080;SDS011;10200;49.232;9.222;2022-08-25T02:27:44;6.53;;;3.80;;
20080;SDS011;10200;49.232;9.222;2022-08-25T02:30:10;5.32;;;4.40;;
20080;SDS011;10200;49.232;9.222;2022-08-25T02:32:37;6.60;;;3.97;;
20080;SDS011;10200;49.232;9.222;2022-08-25T02:35:04;5.75;;;4.00;;
20080;SDS011;10200;49.232;9.222;2022-08-25T02:37:30;5.97;;;3.90;;
20080;SDS011;10200;49.232;9.222;2022-08-25T02:39:56;4.32;;;3.78;;
20080;SDS011;10200;49.232;9.222;2022-08-25T02:42:23;5.80;;;4.15;;
20080;SDS011;10200;49.232;9.222;2022-08-25T02:44:49;6.13;;;4.00;;
20080;SDS011;10200;49.232;9.222;2022-08-25T02:47:14;8.00;;;4.05;;
20080;SDS011;10200;49.232;9.222;2022-08-25T02:49:40;4.90;;;4.07;;
20080;SDS011;10200;49.232;9.222;2022-08-25T02:52:06;5.90;;;3.90;;
20080;SDS011;10200;49.232;9.222;2022-08-25T02:54:33;8.93;;;3.88;;
20080;SDS011;10200;49.232;9.222;2022-08-25T02:56:59;8.32;;;4.50;;
20080;SDS011;10200;49.232;9.222;2022-08-25T02:59:24;5.03;;;3.80;;
20080;SDS011;10200;49.232;9.222;2022-08-25T03:01:50;5.03;;;3.72;;
20080;SDS011;10200;49.232;9.222;2022-08-25T03:04:16;4.78;;;4.28;;
20080;SDS011;10200;49.232;9.222;2022-08-25T03:06:42;5.05;;;3.70;;
20080;SDS011;10200;49.232;9.222;2022-08-25T03:09:08;5.68;;;3.85;;
20080;SDS011;10200;49.232;9.222;2022-08-25T03:11:34;5.18;;;4.13;;
20080;SDS011;10200;49.232;9.222;2022-08-25T03:14:01;5.25;;;4.35;;
20080;SDS011;10200;49.232;9.222;2022-08-25T03:16:27;6.82;;;4.00;;
20080;SDS011;10200;49.232;9.222;2022-08-25T03:18:53;7.80;;;4.10;;
20080;SDS011;10200;49.232;9.222;2022-08-25T03:21:19;5.13;;;4.47;;
20080;SDS011;10200;49.232;9.222;2022-08-25T03:23:45;7.78;;;4.32;;
20080;SDS011;10200;49.232;9.222;2022-08-25T03:26:10;4.45;;;3.78;;
20080;SDS011;10200;49.232;9.222;2022-08-25T03:28:55;7.10;;;4.13;;
20080;SDS011;10200;49.232;9.222;2022-08-25T03:31:21;6.63;;;4.22;;
20080;SDS011;10200;49.232;9.222;2022-08-25T03:33:47;6.10;;;4.03;;
20080;SDS011;10200;49.232;9.222;2022-08-25T03:36:13;6.32;;;4.82;;
20080;SDS011;10200;49.232;9.222;2022-08-25T03:38:39;4.75;;;3.60;;
20080;SDS011;10200;49.232;9.222;2022-08-25T03:41:16;6.28;;;4.65;;
20080;SDS011;10200;49.232;9.222;2022-08-25T03:43:45;6.35;;;4.45;;
20080;SDS011;10200;49.232;9.222;2022-08-25T03:46:18;7.88;;;4.95;;
20080;SDS011;10200;49.232;9.222;2022-08-25T03:48:49;6.65;;;4.65;;
20080;SDS011;10200;49.232;9.222;2022-08-25T03:51:23;5.72;;;4.22;;
20080;SDS011;10200;49.232;9.222;2022-08-25T03:53:57;6.38;;;5.10;;
20080;SDS011;10200;49.232;9.222;2022-08-25T03:56:23;5.78;;;4.38;;
20080;SDS011;10200;49.232;9.222;2022-08-25T03:58:49;5.43;;;4.40;;
20080;SDS011;10200;49.232;9.222;2022-08-25T04:01:15;5.88;;;4.95;;
20080;SDS011;10200;49.232;9.222;2022-08-25T04:03:41;5.97;;;4.88;;
20080;SDS011;10200;49.232;9.222;2022-08-25T04:06:07;5.50;;;4.82;;
20080;SDS011;10200;49.232;9.222;2022-08-25T04:08:33;4.85;;;4.03;;
20080;SDS011;10200;49.232;9.222;2022-08-25T04:11:04;5.88;;;4.85;;
20080;SDS011;10200;49.232;9.222;2022-08-25T04:13:35;6.18;;;5.03;;
20080;SDS011;10200;49.232;9.222;2022-08-25T04:16:01;7.07;;;4.45;;
20080;SDS011;10200;49.232;9.222;2022-08-25T04:18:28;5.00;;;4.22;;
20080;SDS011;10200;49.232;9.222;2022-08-25T04:21:02;4.80;;;4.30;;
20080;SDS011;10200;49.232;9.222;2022-08-25T04:23:29;6.37;;;4.60;;
20080;SDS011;10200;49.232;9.222;2022-08-25T04:25:55;4.77;;;4.10;;
20080;SDS011;10200;49.232;9.222;2022-08-25T04:28:21;4.68;;;4.07;;
20080;SDS011;10200;49.232;9.222;2022-08-25T04:30:47;6.78;;;4.10;;
20080;SDS011;10200;49.232;9.222;2022-08-25T04:33:12;5.60;;;4.80;;
20080;SDS011;10200;49.232;9.222;2022-08-25T04:35:38;5.03;;;4.32;;
20080;SDS011;10200;49.232;9.222;2022-08-25T04:38:05;6.65;;;4.18;;
20080;SDS011;10200;49.232;9.222;2022-08-25T04:40:31;4.75;;;4.25;;
20080;SDS011;10200;49.232;9.222;2022-08-25T04:42:56;4.70;;;4.25;;
20080;SDS011;10200;49.232;9.222;2022-08-25T04:45:23;6.10;;;5.00;;
20080;SDS011;10200;49.232;9.222;2022-08-25T04:47:48;6.70;;;4.40;;
20080;SDS011;10200;49.232;9.222;2022-08-25T04:50:14;6.90;;;5.47;;
20080;SDS011;10200;49.232;9.222;2022-08-25T04:52:40;5.85;;;4.53;;
20080;SDS011;10200;49.232;9.222;2022-08-25T04:55:06;9.55;;;6.43;;
20080;SDS011;10200;49.232;9.222;2022-08-25T04:57:32;8.70;;;5.10;;
20080;SDS011;10200;49.232;9.222;2022-08-25T04:59:57;10.00;;;5.50;;
20080;SDS011;10200;49.232;9.222;2022-08-25T05:02:23;5.43;;;4.45;;
20080;SDS011;10200;49.232;9.222;2022-08-25T05:04:49;6.22;;;4.63;;
20080;SDS011;10200;49.232;9.222;2022-08-25T05:07:15;5.45;;;4.70;;
20080;SDS011;10200;49.232;9.222;2022-08-25T05:09:41;5.82;;;4.82;;
20080;SDS011;10200;49.232;9.222;2022-08-25T05:12:06;6.22;;;4.57;;
20080;SDS011;10200;49.232;9.222;2022-08-25T05:14:32;6.38;;;4.93;;
20080;SDS011;10200;49.232;9.222;2022-08-25T05:16:58;8.18;;;5.18;;
20080;SDS011;10200;49.232;9.222;2022-08-25T05:19:24;5.72;;;4.70;;
20080;SDS011;10200;49.232;9.222;2022-08-25T05:21:50;5.47;;;4.85;;
20080;SDS011;10200;49.232;9.222;2022-08-25T05:24:16;6.00;;;5.03;;
20080;SDS011;10200;49.232;9.222;2022-08-25T05:26:42;9.57;;;4.95;;
20080;SDS011;10200;49.232;9.222;2022-08-25T05:29:07;7.90;;;3.95;;
20080;SDS011;10200;49.232;9.222;2022-08-25T05:31:34;6.63;;;4.57;;
20080;SDS011;10200;49.232;9.222;2022-08-25T05:34:03;6.30;;;4.72;;
20080;SDS011;10200;49.232;9.222;2022-08-25T05:36:30;5.85;;;4.55;;
20080;SDS011;10200;49.232;9.222;2022-08-25T05:38:57;6.72;;;5.03;;
20080;SDS011;10200;49.232;9.222;2022-08-25T05:41:26;5.57;;;4.55;;
20080;SDS011;10200;49.232;9.222;2022-08-25T05:43:52;6.47;;;4.38;;
20080;SDS011;10200;49.232;9.222;2022-08-25T05:46:18;6.32;;;4.47;;
20080;SDS011;10200;49.232;9.222;2022-08-25T05:48:45;6.47;;;4.90;;
20080;SDS011;10200;49.232;9.222;2022-08-25T05:51:12;6.90;;;5.20;;
20080;SDS011;10200;49.232;9.222;2022-08-25T05:53:40;6.07;;;4.78;;
20080;SDS011;10200;49.232;9.222;2022-08-25T05:56:07;6.95;;;5.40;;
20080;SDS011;10200;49.232;9.222;2022-08-25T05:58:33;6.45;;;4.35;;
20080;SDS011;10200;49.232;9.222;2022-08-25T06:00:59;7.25;;;4.80;;
20080;SDS011;10200;49.232;9.222;2022-08-25T06:03:44;8.65;;;5.63;;
20080;SDS011;10200;49.232;9.222;2022-08-25T06:06:11;4.60;;;3.97;;
20080;SDS011;10200;49.232;9.222;2022-08-25T06:08:37;5.07;;;4.32;;
20080;SDS011;10200;49.232;9.222;2022-08-25T06:11:04;12.70;;;5.00;;
20080;SDS011;10200;49.232;9.222;2022-08-25T06:13:31;4.72;;;4.20;;
20080;SDS011;10200;49.232;9.222;2022-08-25T06:15:59;6.97;;;4.95;;
20080;SDS011;10200;49.232;9.222;2022-08-25T06:18:25;6.90;;;4.05;;
20080;SDS011;10200;49.232;9.222;2022-08-25T06:20:51;5.90;;;4.18;;
20080;SDS011;10200;49.232;9.222;2022-08-25T06:23:17;9.93;;;4.18;;
20080;SDS011;10200;49.232;9.222;2022-08-25T06:25:47;7.57;;;4.40;;
20080;SDS011;10200;49.232;9.222;2022-08-25T06:28:17;8.40;;;4.75;;
20080;SDS011;10200;49.232;9.222;2022-08-25T06:30:44;7.15;;;4.60;;
20080;SDS011;10200;49.232;9.222;2022-08-25T06:33:13;8.07;;;4.43;;
20080;SDS011;10200;49.232;9.222;2022-08-25T06:35:42;6.70;;;4.30;;
20080;SDS011;10200;49.232;9.222;2022-08-25T06:38:08;5.70;;;4.57;;
20080;SDS011;10200;49.232;9.222;2022-08-25T06:40:34;4.95;;;3.85;;
20080;SDS011;10200;49.232;9.222;2022-08-25T06:43:00;9.20;;;5.10;;
20080;SDS011;10200;49.232;9.222;2022-08-25T06:45:26;4.88;;;4.38;;
20080;SDS011;10200;49.232;9.222;2022-08-25T06:47:51;5.68;;;4.90;;
20080;SDS011;10200;49.232;9.222;2022-08-25T06:50:18;5.55;;;4.35;;
20080;SDS011;10200;49.232;9.222;2022-08-25T06:52:44;6.68;;;4.57;;
20080;SDS011;10200;49.232;9.222;2022-08-25T06:55:09;5.05;;;4.32;;
20080;SDS011;10200;49.232;9.222;2022-08-25T06:57:35;7.10;;;4.88;;
20080;SDS011;10200;49.232;9.222;2022-08-25T07:00:02;6.70;;;5.15;;
20080;SDS011;10200;49.232;9.222;2022-08-25T07:02:29;7.93;;;4.60;;
20080;SDS011;10200;49.232;9.222;2022-08-25T07:04:55;5.70;;;5.10;;
20080;SDS011;10200;49.232;9.222;2022-08-25T07:07:20;5.57;;;4.63;;
20080;SDS011;10200;49.232;9.222;2022-08-25T07:09:46;10.77;;;4.90;;
20080;SDS011;10200;49.232;9.222;2022-08-25T07:12:12;6.03;;;4.80;;
20080;SDS011;10200;49.232;9.222;2022-08-25T07:14:40;5.28;;;4.07;;
20080;SDS011;10200;49.232;9.222;2022-08-25T07:17:06;4.53;;;4.10;;
20080;SDS011;10200;49.232;9.222;2022-08-25T07:19:31;7.80;;;5.25;;
20080;SDS011;10200;49.232;9.222;2022-08-25T07:21:57;10.73;;;6.07;;
20080;SDS011;10200;49.232;9.222;2022-08-25T07:24:23;5.97;;;5.38;;
20080;SDS011;10200;49.232;9.222;2022-08-25T07:26:48;6.13;;;5.25;;
20080;SDS011;10200;49.232;9.222;2022-08-25T07:29:16;8.77;;;4.88;;
20080;SDS011;10200;49.232;9.222;2022-08-25T07:31:45;5.78;;;5.18;;
20080;SDS011;10200;49.232;9.222;2022-08-25T07:34:10;6.03;;;4.85;;
20080;SDS011;10200;49.232;9.222;2022-08-25T07:36:55;5.10;;;4.55;;
20080;SDS011;10200;49.232;9.222;2022-08-25T07:39:22;7.10;;;4.97;;
20080;SDS011;10200;49.232;9.222;2022-08-25T07:41:48;5.18;;;4.10;;
20080;SDS011;10200;49.232;9.222;2022-08-25T07:44:15;12.02;;;5.05;;
20080;SDS011;10200;49.232;9.222;2022-08-25T07:46:40;6.60;;;4.88;;
20080;SDS011;10200;49.232;9.222;2022-08-25T07:49:06;5.05;;;4.25;;
20080;SDS011;10200;49.232;9.222;2022-08-25T07:51:32;6.32;;;5.35;;
20080;SDS011;10200;49.232;9.222;2022-08-25T07:53:58;5.05;;;4.55;;
20080;SDS011;10200;49.232;9.222;2022-08-25T07:56:24;5.30;;;4.80;;
20080;SDS011;10200;49.232;9.222;2022-08-25T07:58:49;6.75;;;4.90;;
20080;SDS011;10200;49.232;9.222;2022-08-25T08:01:20;7.30;;;4.45;;
20080;SDS011;10200;49.232;9.222;2022-08-25T08:03:47;5.75;;;4.50;;
20080;SDS011;10200;49.232;9.222;2022-08-25T08:06:14;9.18;;;4.70;;
20080;SDS011;10200;49.232;9.222;2022-08-25T08:08:42;10.18;;;4.65;;
20080;SDS011;10200;49.232;9.222;2022-08-25T08:11:16;4.93;;;3.85;;
20080;SDS011;10200;49.232;9.222;2022-08-25T08:13:47;4.47;;;4.07;;
20080;SDS011;10200;49.232;9.222;2022-08-25T08:16:14;5.05;;;4.45;;
20080;SDS011;10200;49.232;9.222;2022-08-25T08:18:42;5.75;;;4.10;;
20080;SDS011;10200;49.232;9.222;2022-08-25T08:21:12;4.65;;;3.50;;
20080;SDS011;10200;49.232;9.222;2022-08-25T08:23:39;5.72;;;4.43;;
20080;SDS011;10200;49.232;9.222;2022-08-25T08:26:05;7.38;;;4.32;;
20080;SDS011;10200;49.232;9.222;2022-08-25T08:28:31;5.45;;;4.40;;
20080;SDS011;10200;49.232;9.222;2022-08-25T08:30:56;6.28;;;4.57;;
20080;SDS011;10200;49.232;9.222;2022-08-25T08:33:22;4.47;;;4.07;;
20080;SDS011;10200;49.232;9.222;2022-08-25T08:35:58;5.00;;;4.03;;
20080;SDS011;10200;49.232;9.222;2022-08-25T08:38:27;4.50;;;3.83;;
20080;SDS011;10200;49.232;9.222;2022-08-25T08:41:18;5.00;;;3.70;;
20080;SDS011;10200;49.232;9.222;2022-08-25T08:44:39;5.28;;;3.80;;
20080;SDS011;10200;49.232;9.222;2022-08-25T08:47:31;4.82;;;4.22;;
20080;SDS011;10200;49.232;9.222;2022-08-25T08:50:03;3.95;;;3.55;;
20080;SDS011;10200;49.232;9.222;2022-08-25T08:52:36;4.72;;;4.03;;
20080;SDS011;10200;49.232;9.222;2022-08-25T08:55:10;4.20;;;3.80;;
20080;SDS011;10200;49.232;9.222;2022-08-25T08:57:47;5.03;;;3.25;;
20080;SDS011;10200;49.232;9.222;2022-08-25T09:00:15;5.25;;;3.83;;
20080;SDS011;10200;49.232;9.222;2022-08-25T09:02:47;4.75;;;4.25;;
20080;SDS011;10200;49.232;9.222;2022-08-25T09:05:19;4.70;;;4.20;;
20080;SDS011;10200;49.232;9.222;2022-08-25T09:07:53;4.43;;;3.45;;
20080;SDS011;10200;49.232;9.222;2022-08-25T09:33:47;4.30;;;3.90;;
20080;SDS011;10200;49.232;9.222;2022-08-25T09:36:13;5.22;;;3.33;;
20080;SDS011;10200;49.232;9.222;2022-08-25T09:38:39;13.98;;;5.32;;
20080;SDS011;10200;49.232;9.222;2022-08-25T09:41:05;3.90;;;3.50;;
20080;SDS011;10200;49.232;9.222;2022-08-25T09:46:24;3.70;;;2.83;;
20080;SDS011;10200;49.232;9.222;2022-08-25T09:48:52;4.57;;;3.17;;
20080;SDS011;10200;49.232;9.222;2022-08-25T09:51:27;3.53;;;3.22;;
20080;SDS011;10200;49.232;9.222;2022-08-25T09:54:05;3.42;;;3.03;;
20080;SDS011;10200;49.232;9.222;2022-08-25T10:01:48;4.80;;;3.40;;
20080;SDS011;10200;49.232;9.222;2022-08-25T10:04:24;7.05;;;3.00;;
20080;SDS011;10200;49.232;9.222;2022-08-25T10:06:56;5.45;;;2.92;;
20080;SDS011;10200;49.232;9.222;2022-08-25T10:09:39;4.30;;;3.63;;
20080;SDS011;10200;49.232;9.222;2022-08-25T10:12:24;3.78;;;3.40;;
20080;SDS011;10200;49.232;9.222;2022-08-25T10:14:56;5.80;;;3.15;;
20080;SDS011;10200;49.232;9.222;2022-08-25T10:20:34;3.17;;;2.88;;
20080;SDS011;10200;49.232;9.222;2022-08-25T10:22:43;4.00;;;3.45;;
20080;SDS011;10200;49.232;9.222;2022-08-25T10:25:10;4.13;;;3.35;;
20080;SDS011;10200;49.232;9.222;2022-08-25T10:30:16;4.35;;;3.50;;
20080;SDS011;10200;49.232;9.222;2022-08-25T10:35:23;2.75;;;2.55;;
20080;SDS011;10200;49.232;9.222;2022-08-25T10:41:03;3.63;;;2.83;;
20080;SDS011;10200;49.232;9.222;2022-08-25T10:46:27;3.83;;;2.92;;
20080;SDS011;10200;49.232;9.222;2022-08-25T10:59:29;2.92;;;2.15;;
20080;SDS011;10200;49.232;9.222;2022-08-25T11:07:32;2.83;;;2.50;;
20080;SDS011;10200;49.232;9.222;2022-08-25T11:10:04;3.20;;;2.90;;
20080;SDS011;10200;49.232;9.222;2022-08-25T11:12:35;2.97;;;2.45;;
20080;SDS011;10200;49.232;9.222;2022-08-25T11:15:28;3.15;;;2.70;;
20080;SDS011;10200;49.232;9.222;2022-08-25T11:17:55;3.60;;;3.20;;
20080;SDS011;10200;49.232;9.222;2022-08-25T11:26:12;3.22;;;2.80;;
20080;SDS011;10200;49.232;9.222;2022-08-25T11:28:54;3.30;;;3.00;;
20080;SDS011;10200;49.232;9.222;2022-08-25T11:31:43;3.17;;;2.88;;
20080;SDS011;10200;49.232;9.222;2022-08-25T11:34:14;3.88;;;2.85;;
20080;SDS011;10200;49.232;9.222;2022-08-25T11:36:41;5.68;;;2.50;;
20080;SDS011;10200;49.232;9.222;2022-08-25T11:39:14;3.13;;;2.70;;
20080;SDS011;10200;49.232;9.222;2022-08-25T11:42:06;6.90;;;3.33;;
20080;SDS011;10200;49.232;9.222;2022-08-25T11:44:59;5.30;;;2.50;;
20080;SDS011;10200;49.232;9.222;2022-08-25T11:50:24;6.20;;;3.00;;
20080;SDS011;10200;49.232;9.222;2022-08-25T11:53:18;3.15;;;2.95;;
20080;SDS011;10200;49.232;9.222;2022-08-25T11:55:51;2.60;;;2.40;;
20080;SDS011;10200;49.232;9.222;2022-08-25T12:00:55;3.30;;;2.50;;
20080;SDS011;10200;49.232;9.222;2022-08-25T12:16:43;2.88;;;2.20;;
20080;SDS011;10200;49.232;9.222;2022-08-25T12:19:47;2.60;;;2.40;;
20080;SDS011;10200;49.232;9.222;2022-08-25T12:24:51;2.40;;;2.20;;
20080;SDS011;10200;49.232;9.222;2022-08-25T12:30:04;2.95;;;2.35;;
20080;SDS011;10200;49.232;9.222;2022-08-25T12:38:16;3.35;;;1.77;;
20080;SDS011;10200;49.232;9.222;2022-08-25T12:40:53;4.35;;;2.65;;
20080;SDS011;10200;49.232;9.222;2022-08-25T12:46:45;3.03;;;2.28;;
20080;SDS011;10200;49.232;9.222;2022-08-25T12:54:42;3.15;;;2.38;;
20080;SDS011;10200;49.232;9.222;2022-08-25T12:57:20;2.92;;;2.30;;
20080;SDS011;10200;49.232;9.222;2022-08-25T12:59:49;2.30;;;2.05;;
20080;SDS011;10200;49.232;9.222;2022-08-25T13:16:34;2.78;;;2.47;;
20080;SDS011;10200;49.232;9.222;2022-08-25T13:19:03;2.53;;;2.33;;
20080;SDS011;10200;49.232;9.222;2022-08-25T13:21:35;2.97;;;2.38;;
20080;SDS011;10200;49.232;9.222;2022-08-25T13:24:04;3.70;;;2.67;;
20080;SDS011;10200;49.232;9.222;2022-08-25T13:26:36;4.60;;;2.10;;
20080;SDS011;10200;49.232;9.222;2022-08-25T13:31:32;2.72;;;2.50;;
20080;SDS011;10200;49.232;9.222;2022-08-25T13:34:00;2.85;;;2.63;;
20080;SDS011;10200;49.232;9.222;2022-08-25T13:36:29;5.00;;;2.53;;
20080;SDS011;10200;49.232;9.222;2022-08-25T13:39:15;2.85;;;2.65;;
20080;SDS011;10200;49.232;9.222;2022-08-25T13:41:48;4.00;;;2.67;;
20080;SDS011;10200;49.232;9.222;2022-08-25T13:44:16;3.25;;;2.42;;
20080;SDS011;10200;49.232;9.222;2022-08-25T13:46:43;3.90;;;2.70;;
20080;SDS011;10200;49.232;9.222;2022-08-25T13:49:11;2.83;;;2.50;;
20080;SDS011;10200;49.232;9.222;2022-08-25T13:51:39;3.05;;;2.72;;
20080;SDS011;10200;49.232;9.222;2022-08-25T13:54:37;4.22;;;2.70;;
20080;SDS011;10200;49.232;9.222;2022-08-25T13:57:10;3.08;;;2.33;;
20080;SDS011;10200;49.232;9.222;2022-08-25T13:59:41;2.78;;;2.45;;
20080;SDS011;10200;49.232;9.222;2022-08-25T14:02:09;2.47;;;2.28;;
20080;SDS011;10200;49.232;9.222;2022-08-25T14:09:53;4.32;;;2.60;;
20080;SDS011;10200;49.232;9.222;2022-08-25T14:12:28;2.38;;;2.17;;
20080;SDS011;10200;49.232;9.222;2022-08-25T14:17:33;2.50;;;2.30;;
20080;SDS011;10200;49.232;9.222;2022-08-25T14:20:00;3.33;;;3.03;;
20080;SDS011;10200;49.232;9.222;2022-08-25T14:22:26;3.88;;;2.25;;
20080;SDS011;10200;49.232;9.222;2022-08-25T14:24:52;2.63;;;2.40;;
20080;SDS011;10200;49.232;9.222;2022-08-25T14:27:19;2.47;;;2.03;;
20080;SDS011;10200;49.232;9.222;2022-08-25T14:29:45;4.80;;;2.42;;
20080;SDS011;10200;49.232;9.222;2022-08-25T14:32:10;2.78;;;2.47;;
20080;SDS011;10200;49.232;9.222;2022-08-25T14:34:37;2.65;;;2.45;;
20080;SDS011;10200;49.232;9.222;2022-08-25T14:37:11;3.88;;;2.38;;
20080;SDS011;10200;49.232;9.222;2022-08-25T14:39:42;5.13;;;3.13;;
20080;SDS011;10200;49.232;9.222;2022-08-25T14:42:08;3.20;;;2.90;;
20080;SDS011;10200;49.232;9.222;2022-08-25T14:44:34;3.28;;;2.95;;
20080;SDS011;10200;49.232;9.222;2022-08-25T14:47:00;2.40;;;2.20;;
20080;SDS011;10200;49.232;9.222;2022-08-25T14:49:30;2.38;;;2.17;;
20080;SDS011;10200;49.232;9.222;2022-08-25T14:52:00;2.22;;;2.00;;
20080;SDS011;10200;49.232;9.222;2022-08-25T14:54:32;3.63;;;2.35;;
20080;SDS011;10200;49.232;9.222;2022-08-25T14:56:58;3.85;;;2.20;;
20080;SDS011;10200;49.232;9.222;2022-08-25T14:59:23;2.45;;;2.25;;
20080;SDS011;10200;49.232;9.222;2022-08-25T15:01:49;2.85;;;2.35;;
20080;SDS011;10200;49.232;9.222;2022-08-25T15:04:16;3.50;;;2.90;;
20080;SDS011;10200;49.232;9.222;2022-08-25T15:06:44;2.85;;;2.17;;
20080;SDS011;10200;49.232;9.222;2022-08-25T15:09:14;2.60;;;2.40;;
20080;SDS011;10200;49.232;9.222;2022-08-25T15:12:01;2.60;;;2.38;;
20080;SDS011;10200;49.232;9.222;2022-08-25T15:14:26;5.30;;;2.67;;
20080;SDS011;10200;49.232;9.222;2022-08-25T15:16:52;2.00;;;1.80;;
20080;SDS011;10200;49.232;9.222;2022-08-25T15:19:24;2.72;;;2.53;;
20080;SDS011;10200;49.232;9.222;2022-08-25T15:21:51;2.45;;;2.25;;
20080;SDS011;10200;49.232;9.222;2022-08-25T15:24:18;2.90;;;2.60;;
20080;SDS011;10200;49.232;9.222;2022-08-25T15:26:55;2.25;;;1.90;;
20080;SDS011;10200;49.232;9.222;2022-08-25T15:29:26;2.30;;;2.10;;
20080;SDS011;10200;49.232;9.222;2022-08-25T15:31:54;5.00;;;2.70;;
20080;SDS011;10200;49.232;9.222;2022-08-25T15:34:20;3.08;;;2.38;;
20080;SDS011;10200;49.232;9.222;2022-08-25T15:36:46;2.67;;;2.42;;
20080;SDS011;10200;49.232;9.222;2022-08-25T15:39:13;4.97;;;2.80;;
20080;SDS011;10200;49.232;9.222;2022-08-25T15:41:39;2.22;;;1.98;;
20080;SDS011;10200;49.232;9.222;2022-08-25T15:44:06;2.65;;;2.42;;
20080;SDS011;10200;49.232;9.222;2022-08-25T15:46:33;2.60;;;2.40;;
20080;SDS011;10200;49.232;9.222;2022-08-25T15:49:00;2.75;;;2.55;;
20080;SDS011;10200;49.232;9.222;2022-08-25T15:51:26;2.53;;;2.33;;
20080;SDS011;10200;49.232;9.222;2022-08-25T15:53:52;6.00;;;2.15;;
20080;SDS011;10200;49.232;9.222;2022-08-25T15:56:19;2.20;;;2.00;;
20080;SDS011;10200;49.232;9.222;2022-08-25T15:58:45;2.50;;;2.30;;
20080;SDS011;10200;49.232;9.222;2022-08-25T16:01:15;3.35;;;2.17;;
20080;SDS011;10200;49.232;9.222;2022-08-25T16:03:43;3.15;;;2.65;;
20080;SDS011;10200;49.232;9.222;2022-08-25T16:06:09;5.10;;;2.70;;
20080;SDS011;10200;49.232;9.222;2022-08-25T16:08:35;2.72;;;2.53;;
20080;SDS011;10200;49.232;9.222;2022-08-25T16:11:02;2.80;;;2.60;;
20080;SDS011;10200;49.232;9.222;2022-08-25T16:13:29;3.33;;;2.92;;
20080;SDS011;10200;49.232;9.222;2022-08-25T16:15:54;2.53;;;2.33;;
20080;SDS011;10200;49.232;9.222;2022-08-25T16:18:23;3.08;;;2.75;;
20080;SDS011;10200;49.232;9.222;2022-08-25T16:20:48;3.92;;;2.20;;
20080;SDS011;10200;49.232;9.222;2022-08-25T16:23:15;2.40;;;2.20;;
20080;SDS011;10200;49.232;9.222;2022-08-25T16:25:42;2.42;;;2.22;;
20080;SDS011;10200;49.232;9.222;2022-08-25T16:28:10;4.03;;;2.33;;
20080;SDS011;10200;49.232;9.222;2022-08-25T16:30:37;2.95;;;2.40;;
20080;SDS011;10200;49.232;9.222;2022-08-25T16:33:06;2.65;;;2.45;;
20080;SDS011;10200;49.232;9.222;2022-08-25T16:35:32;4.57;;;2.67;;
20080;SDS011;10200;49.232;9.222;2022-08-25T16:37:58;2.45;;;2.20;;
20080;SDS011;10200;49.232;9.222;2022-08-25T16:40:24;2.97;;;2.65;;
20080;SDS011;10200;49.232;9.222;2022-08-25T16:42:51;2.80;;;2.60;;
20080;SDS011;10200;49.232;9.222;2022-08-25T16:45:17;3.53;;;3.03;;
20080;SDS011;10200;49.232;9.222;2022-08-25T16:47:44;3.25;;;2.53;;
20080;SDS011;10200;49.232;9.222;2022-08-25T16:50:10;5.00;;;2.53;;
20080;SDS011;10200;49.232;9.222;2022-08-25T16:52:36;3.13;;;2.53;;
20080;SDS011;10200;49.232;9.222;2022-08-25T16:55:21;6.18;;;2.28;;
20080;SDS011;10200;49.232;9.222;2022-08-25T16:57:48;2.67;;;2.42;;
20080;SDS011;10200;49.232;9.222;2022-08-25T17:00:19;2.58;;;1.98;;
20080;SDS011;10200;49.232;9.222;2022-08-25T17:02:47;2.50;;;2.30;;
20080;SDS011;10200;49.232;9.222;2022-08-25T17:05:16;6.28;;;2.65;;
20080;SDS011;10200;49.232;9.222;2022-08-25T17:07:42;3.75;;;2.45;;
20080;SDS011;10200;49.232;9.222;2022-08-25T17:10:28;2.38;;;2.17;;
20080;SDS011;10200;49.232;9.222;2022-08-25T17:12:53;2.63;;;2.42;;
20080;SDS011;10200;49.232;9.222;2022-08-25T17:15:19;4.57;;;2.80;;
20080;SDS011;10200;49.232;9.222;2022-08-25T17:17:47;4.90;;;2.30;;
20080;SDS011;10200;49.232;9.222;2022-08-25T17:20:13;5.88;;;2.20;;